Pagrindinis puslapis
METAR-TAF:

METAR-TAF

Oro uostai :

Røst, Norvegija

platuma: 67-31N, ilguma: 012-06E, Aukštis: 4 m

Dabartinis oras

Ataskaita buvo paskelbta 4 valandos ir 11 minutes, ne 12:20 UTC
Vėjas 18 kt iš Šiaurės/Šiaurės Vakarų
Temperatūra 5°C
Drėgmė 70%
Slėgis 978 hPa
Matomumas 10 km arba daugiau
Mažai debesys ne aukštis 1500 ft
Išsisklaidę debesys ne aukštis 3200 ft
Liūtis kaimynystėje

METAR: ENRS 071220Z 33018KT 9999 VCSH FEW015 SCT032 05/M00 Q0978

Laikas: 17:31 (16:31 UTC)


TAF: trūkstamas

Orai ataskaitas ir orų prognozės (METAR, TAF).

turimą stotys yra geltonos ir raudonos taškus žemėlapyje.

Perkelti pele per norėdami pamatyti stoties vardą.

Tada spustelėkite, norėdami matyti oro stebėjimo ir prognozės.

Norėdami pakeisti žemėlapį: spustelėkite ant žalios mygtukų su juodo kryžiaus žemyn,; žalią mygtuką su brūkšneliu, jei norite nutolinti; arba žalių rodyklių gretimoms žemėlapius.


METAR-TAF: